sensor_id;sensor_type;location;lat;lon;timestamp;P1;durP1;ratioP1;P2;durP2;ratioP2
12650;SDS011;6390;49.400;8.670;2022-09-13T00:00:54;1.85;;;1.65;;
12650;SDS011;6390;49.400;8.670;2022-09-13T00:03:21;3.78;;;2.03;;
12650;SDS011;6390;49.400;8.670;2022-09-13T00:05:47;2.00;;;1.90;;
12650;SDS011;6390;49.400;8.670;2022-09-13T00:08:13;1.98;;;1.70;;
12650;SDS011;6390;49.400;8.670;2022-09-13T00:10:40;2.08;;;1.63;;
12650;SDS011;6390;49.400;8.670;2022-09-13T00:13:08;1.70;;;1.60;;
12650;SDS011;6390;49.400;8.670;2022-09-13T00:15:36;2.30;;;1.90;;
12650;SDS011;6390;49.400;8.670;2022-09-13T00:18:06;3.38;;;2.00;;
12650;SDS011;6390;49.400;8.670;2022-09-13T00:20:32;3.65;;;1.83;;
12650;SDS011;6390;49.400;8.670;2022-09-13T00:22:58;2.42;;;2.20;;
12650;SDS011;6390;49.400;8.670;2022-09-13T00:25:24;2.13;;;1.90;;
12650;SDS011;6390;49.400;8.670;2022-09-13T00:27:50;2.20;;;1.92;;
12650;SDS011;6390;49.400;8.670;2022-09-13T00:30:16;4.45;;;2.00;;
12650;SDS011;6390;49.400;8.670;2022-09-13T00:32:43;2.47;;;1.95;;
12650;SDS011;6390;49.400;8.670;2022-09-13T00:35:09;1.73;;;1.63;;
12650;SDS011;6390;49.400;8.670;2022-09-13T00:37:35;2.05;;;1.90;;
12650;SDS011;6390;49.400;8.670;2022-09-13T00:40:03;1.88;;;1.70;;
12650;SDS011;6390;49.400;8.670;2022-09-13T00:42:30;2.28;;;2.08;;
12650;SDS011;6390;49.400;8.670;2022-09-13T00:47:32;2.10;;;1.90;;
12650;SDS011;6390;49.400;8.670;2022-09-13T00:52:47;2.30;;;2.10;;
12650;SDS011;6390;49.400;8.670;2022-09-13T00:56:39;1.85;;;1.75;;
12650;SDS011;6390;49.400;8.670;2022-09-13T00:58:50;2.40;;;2.00;;
12650;SDS011;6390;49.400;8.670;2022-09-13T01:01:27;2.10;;;1.90;;
12650;SDS011;6390;49.400;8.670;2022-09-13T01:03:59;2.00;;;1.90;;
12650;SDS011;6390;49.400;8.670;2022-09-13T01:06:27;2.03;;;1.83;;
12650;SDS011;6390;49.400;8.670;2022-09-13T01:08:54;2.20;;;2.00;;
12650;SDS011;6390;49.400;8.670;2022-09-13T01:11:50;2.30;;;2.10;;
12650;SDS011;6390;49.400;8.670;2022-09-13T01:14:28;2.20;;;2.00;;
12650;SDS011;6390;49.400;8.670;2022-09-13T01:16:55;2.40;;;2.20;;
12650;SDS011;6390;49.400;8.670;2022-09-13T01:19:21;3.60;;;2.13;;
12650;SDS011;6390;49.400;8.670;2022-09-13T01:22:13;3.45;;;1.90;;
12650;SDS011;6390;49.400;8.670;2022-09-13T01:28:40;2.10;;;1.90;;
12650;SDS011;6390;49.400;8.670;2022-09-13T01:40:31;2.35;;;2.15;;
12650;SDS011;6390;49.400;8.670;2022-09-13T01:43:20;4.70;;;2.10;;
12650;SDS011;6390;49.400;8.670;2022-09-13T01:46:08;2.35;;;2.15;;
12650;SDS011;6390;49.400;8.670;2022-09-13T01:51:32;2.25;;;2.05;;
12650;SDS011;6390;49.400;8.670;2022-09-13T01:54:16;3.25;;;1.80;;
12650;SDS011;6390;49.400;8.670;2022-09-13T01:59:45;2.42;;;2.15;;
12650;SDS011;6390;49.400;8.670;2022-09-13T02:02:15;2.17;;;2.00;;
12650;SDS011;6390;49.400;8.670;2022-09-13T02:04:46;2.65;;;2.10;;
12650;SDS011;6390;49.400;8.670;2022-09-13T02:07:18;2.20;;;2.00;;
12650;SDS011;6390;49.400;8.670;2022-09-13T02:09:53;2.25;;;2.05;;
12650;SDS011;6390;49.400;8.670;2022-09-13T02:12:25;1.98;;;1.77;;
12650;SDS011;6390;49.400;8.670;2022-09-13T02:15:03;2.33;;;2.13;;
12650;SDS011;6390;49.400;8.670;2022-09-13T02:17:37;2.25;;;2.05;;
12650;SDS011;6390;49.400;8.670;2022-09-13T02:20:12;2.35;;;1.90;;
12650;SDS011;6390;49.400;8.670;2022-09-13T02:22:45;2.20;;;2.00;;
12650;SDS011;6390;49.400;8.670;2022-09-13T02:25:18;2.88;;;1.95;;
12650;SDS011;6390;49.400;8.670;2022-09-13T02:27:47;2.00;;;1.80;;
12650;SDS011;6390;49.400;8.670;2022-09-13T02:30:17;2.75;;;2.05;;
12650;SDS011;6390;49.400;8.670;2022-09-13T02:32:45;2.20;;;2.00;;
12650;SDS011;6390;49.400;8.670;2022-09-13T02:35:37;2.55;;;1.90;;
12650;SDS011;6390;49.400;8.670;2022-09-13T02:38:09;2.85;;;2.10;;
12650;SDS011;6390;49.400;8.670;2022-09-13T02:40:45;4.00;;;2.10;;
12650;SDS011;6390;49.400;8.670;2022-09-13T02:43:26;2.25;;;2.00;;
12650;SDS011;6390;49.400;8.670;2022-09-13T02:46:10;2.38;;;2.17;;
12650;SDS011;6390;49.400;8.670;2022-09-13T02:48:56;2.55;;;1.92;;
12650;SDS011;6390;49.400;8.670;2022-09-13T02:51:30;1.80;;;1.70;;
12650;SDS011;6390;49.400;8.670;2022-09-13T02:54:40;2.30;;;2.10;;
12650;SDS011;6390;49.400;8.670;2022-09-13T03:00:03;2.25;;;2.03;;
12650;SDS011;6390;49.400;8.670;2022-09-13T03:02:31;2.15;;;1.95;;
12650;SDS011;6390;49.400;8.670;2022-09-13T03:04:58;3.17;;;2.45;;
12650;SDS011;6390;49.400;8.670;2022-09-13T03:07:25;2.45;;;2.25;;
12650;SDS011;6390;49.400;8.670;2022-09-13T03:09:56;3.55;;;2.28;;
12650;SDS011;6390;49.400;8.670;2022-09-13T03:15:35;2.42;;;2.22;;
12650;SDS011;6390;49.400;8.670;2022-09-13T03:30:01;2.90;;;2.13;;
12650;SDS011;6390;49.400;8.670;2022-09-13T03:32:29;3.55;;;2.60;;
12650;SDS011;6390;49.400;8.670;2022-09-13T03:37:54;2.42;;;2.20;;
12650;SDS011;6390;49.400;8.670;2022-09-13T03:40:46;3.20;;;2.40;;
12650;SDS011;6390;49.400;8.670;2022-09-13T03:45:49;2.60;;;2.28;;
12650;SDS011;6390;49.400;8.670;2022-09-13T03:48:18;3.75;;;2.38;;
12650;SDS011;6390;49.400;8.670;2022-09-13T03:50:45;2.70;;;2.50;;
12650;SDS011;6390;49.400;8.670;2022-09-13T03:53:12;2.65;;;2.13;;
12650;SDS011;6390;49.400;8.670;2022-09-13T03:55:50;3.70;;;3.35;;
12650;SDS011;6390;49.400;8.670;2022-09-13T03:58:17;2.90;;;2.70;;
12650;SDS011;6390;49.400;8.670;2022-09-13T04:00:45;2.40;;;2.20;;
12650;SDS011;6390;49.400;8.670;2022-09-13T04:03:12;2.55;;;2.20;;
12650;SDS011;6390;49.400;8.670;2022-09-13T04:05:39;2.40;;;2.20;;
12650;SDS011;6390;49.400;8.670;2022-09-13T04:08:06;2.55;;;2.30;;
12650;SDS011;6390;49.400;8.670;2022-09-13T04:10:32;2.85;;;2.40;;
12650;SDS011;6390;49.400;8.670;2022-09-13T04:13:00;2.20;;;2.00;;
12650;SDS011;6390;49.400;8.670;2022-09-13T04:15:26;3.50;;;2.38;;
12650;SDS011;6390;49.400;8.670;2022-09-13T04:17:54;2.50;;;2.30;;
12650;SDS011;6390;49.400;8.670;2022-09-13T04:20:21;2.33;;;2.10;;
12650;SDS011;6390;49.400;8.670;2022-09-13T04:22:52;2.85;;;2.33;;
12650;SDS011;6390;49.400;8.670;2022-09-13T04:25:20;2.58;;;2.30;;
12650;SDS011;6390;49.400;8.670;2022-09-13T04:27:47;2.50;;;2.30;;
12650;SDS011;6390;49.400;8.670;2022-09-13T04:30:19;2.58;;;2.10;;
12650;SDS011;6390;49.400;8.670;2022-09-13T04:32:46;2.92;;;2.63;;
12650;SDS011;6390;49.400;8.670;2022-09-13T04:35:12;3.03;;;2.20;;
12650;SDS011;6390;49.400;8.670;2022-09-13T04:37:41;2.75;;;2.22;;
12650;SDS011;6390;49.400;8.670;2022-09-13T04:40:08;3.97;;;2.30;;
12650;SDS011;6390;49.400;8.670;2022-09-13T04:42:35;4.05;;;2.28;;
12650;SDS011;6390;49.400;8.670;2022-09-13T04:45:01;2.47;;;2.28;;
12650;SDS011;6390;49.400;8.670;2022-09-13T04:47:27;2.20;;;2.00;;
12650;SDS011;6390;49.400;8.670;2022-09-13T04:49:54;2.42;;;2.20;;
12650;SDS011;6390;49.400;8.670;2022-09-13T04:52:20;4.22;;;2.25;;
12650;SDS011;6390;49.400;8.670;2022-09-13T04:54:46;5.85;;;2.17;;
12650;SDS011;6390;49.400;8.670;2022-09-13T04:57:13;4.45;;;2.35;;
12650;SDS011;6390;49.400;8.670;2022-09-13T04:59:40;2.53;;;2.33;;
12650;SDS011;6390;49.400;8.670;2022-09-13T05:02:07;2.40;;;2.20;;
12650;SDS011;6390;49.400;8.670;2022-09-13T05:04:33;4.60;;;2.50;;
12650;SDS011;6390;49.400;8.670;2022-09-13T05:06:59;2.50;;;2.30;;
12650;SDS011;6390;49.400;8.670;2022-09-13T05:09:26;3.10;;;2.25;;
12650;SDS011;6390;49.400;8.670;2022-09-13T05:11:52;3.75;;;2.00;;
12650;SDS011;6390;49.400;8.670;2022-09-13T05:14:18;3.72;;;2.20;;
12650;SDS011;6390;49.400;8.670;2022-09-13T05:16:44;5.07;;;2.20;;
12650;SDS011;6390;49.400;8.670;2022-09-13T05:19:10;4.85;;;2.60;;
12650;SDS011;6390;49.400;8.670;2022-09-13T05:21:37;3.30;;;2.15;;
12650;SDS011;6390;49.400;8.670;2022-09-13T05:24:03;3.40;;;2.35;;
12650;SDS011;6390;49.400;8.670;2022-09-13T05:26:29;3.75;;;1.92;;
12650;SDS011;6390;49.400;8.670;2022-09-13T05:28:56;3.67;;;2.00;;
12650;SDS011;6390;49.400;8.670;2022-09-13T05:31:27;3.42;;;2.10;;
12650;SDS011;6390;49.400;8.670;2022-09-13T05:34:03;2.72;;;2.10;;
12650;SDS011;6390;49.400;8.670;2022-09-13T05:36:32;3.92;;;2.00;;
12650;SDS011;6390;49.400;8.670;2022-09-13T05:38:58;2.22;;;2.03;;
12650;SDS011;6390;49.400;8.670;2022-09-13T05:41:24;2.72;;;1.98;;
12650;SDS011;6390;49.400;8.670;2022-09-13T05:43:51;2.60;;;2.30;;
12650;SDS011;6390;49.400;8.670;2022-09-13T05:46:17;2.33;;;2.10;;
12650;SDS011;6390;49.400;8.670;2022-09-13T05:48:45;3.22;;;2.15;;
12650;SDS011;6390;49.400;8.670;2022-09-13T05:51:16;3.38;;;2.05;;
12650;SDS011;6390;49.400;8.670;2022-09-13T05:53:46;2.67;;;2.00;;
12650;SDS011;6390;49.400;8.670;2022-09-13T05:56:15;4.38;;;2.63;;
12650;SDS011;6390;49.400;8.670;2022-09-13T05:58:44;2.58;;;2.03;;
12650;SDS011;6390;49.400;8.670;2022-09-13T06:01:13;2.17;;;2.00;;
12650;SDS011;6390;49.400;8.670;2022-09-13T06:03:41;2.20;;;1.98;;
12650;SDS011;6390;49.400;8.670;2022-09-13T06:06:07;4.13;;;1.95;;
12650;SDS011;6390;49.400;8.670;2022-09-13T06:08:35;4.15;;;2.10;;
12650;SDS011;6390;49.400;8.670;2022-09-13T06:11:11;2.40;;;2.20;;
12650;SDS011;6390;49.400;8.670;2022-09-13T06:13:38;4.07;;;1.98;;
12650;SDS011;6390;49.400;8.670;2022-09-13T06:16:07;3.47;;;2.60;;
12650;SDS011;6390;49.400;8.670;2022-09-13T06:18:35;2.97;;;2.67;;
12650;SDS011;6390;49.400;8.670;2022-09-13T06:21:05;2.72;;;2.53;;
12650;SDS011;6390;49.400;8.670;2022-09-13T06:23:41;3.50;;;2.70;;
12650;SDS011;6390;49.400;8.670;2022-09-13T06:26:09;5.97;;;3.00;;
12650;SDS011;6390;49.400;8.670;2022-09-13T06:28:38;4.03;;;2.85;;
12650;SDS011;6390;49.400;8.670;2022-09-13T06:31:08;3.47;;;3.17;;
12650;SDS011;6390;49.400;8.670;2022-09-13T06:33:37;3.85;;;3.10;;
12650;SDS011;6390;49.400;8.670;2022-09-13T06:36:10;3.45;;;2.70;;
12650;SDS011;6390;49.400;8.670;2022-09-13T06:38:39;2.90;;;2.60;;
12650;SDS011;6390;49.400;8.670;2022-09-13T06:41:10;2.75;;;2.55;;
12650;SDS011;6390;49.400;8.670;2022-09-13T06:43:38;4.93;;;2.90;;
12650;SDS011;6390;49.400;8.670;2022-09-13T06:46:05;2.72;;;2.53;;
12650;SDS011;6390;49.400;8.670;2022-09-13T06:48:37;2.47;;;2.20;;
12650;SDS011;6390;49.400;8.670;2022-09-13T06:51:11;2.67;;;2.40;;
12650;SDS011;6390;49.400;8.670;2022-09-13T06:53:40;3.90;;;2.70;;
12650;SDS011;6390;49.400;8.670;2022-09-13T06:56:13;2.50;;;2.30;;
12650;SDS011;6390;49.400;8.670;2022-09-13T06:58:42;2.30;;;2.10;;
12650;SDS011;6390;49.400;8.670;2022-09-13T07:03:45;4.55;;;2.20;;
12650;SDS011;6390;49.400;8.670;2022-09-13T07:06:14;2.78;;;2.40;;
12650;SDS011;6390;49.400;8.670;2022-09-13T07:08:43;3.00;;;2.38;;
12650;SDS011;6390;49.400;8.670;2022-09-13T07:11:11;2.40;;;2.20;;
12650;SDS011;6390;49.400;8.670;2022-09-13T07:13:39;3.13;;;2.35;;
12650;SDS011;6390;49.400;8.670;2022-09-13T07:16:09;3.00;;;2.60;;
12650;SDS011;6390;49.400;8.670;2022-09-13T07:18:36;4.47;;;2.17;;
12650;SDS011;6390;49.400;8.670;2022-09-13T07:21:04;3.05;;;2.35;;
12650;SDS011;6390;49.400;8.670;2022-09-13T07:23:32;2.63;;;2.20;;
12650;SDS011;6390;49.400;8.670;2022-09-13T07:26:01;3.53;;;2.90;;
12650;SDS011;6390;49.400;8.670;2022-09-13T07:28:37;2.67;;;2.25;;
12650;SDS011;6390;49.400;8.670;2022-09-13T07:31:16;2.35;;;2.15;;
12650;SDS011;6390;49.400;8.670;2022-09-13T07:33:45;2.40;;;2.20;;
12650;SDS011;6390;49.400;8.670;2022-09-13T07:36:12;2.35;;;2.15;;
12650;SDS011;6390;49.400;8.670;2022-09-13T07:38:40;2.05;;;1.85;;
12650;SDS011;6390;49.400;8.670;2022-09-13T07:41:10;2.13;;;1.92;;
12650;SDS011;6390;49.400;8.670;2022-09-13T07:43:39;2.38;;;2.00;;
12650;SDS011;6390;49.400;8.670;2022-09-13T07:46:06;3.95;;;1.95;;
12650;SDS011;6390;49.400;8.670;2022-09-13T07:48:36;1.83;;;1.70;;
12650;SDS011;6390;49.400;8.670;2022-09-13T07:51:05;1.95;;;1.85;;
12650;SDS011;6390;49.400;8.670;2022-09-13T07:53:45;1.95;;;1.80;;
12650;SDS011;6390;49.400;8.670;2022-09-13T07:56:13;1.98;;;1.85;;
12650;SDS011;6390;49.400;8.670;2022-09-13T07:58:41;2.00;;;1.80;;
12650;SDS011;6390;49.400;8.670;2022-09-13T08:01:13;2.25;;;2.05;;
12650;SDS011;6390;49.400;8.670;2022-09-13T08:03:42;2.00;;;1.90;;
12650;SDS011;6390;49.400;8.670;2022-09-13T08:06:09;2.20;;;2.00;;
12650;SDS011;6390;49.400;8.670;2022-09-13T08:08:35;2.30;;;2.10;;
12650;SDS011;6390;49.400;8.670;2022-09-13T08:11:03;2.92;;;2.13;;
12650;SDS011;6390;49.400;8.670;2022-09-13T08:13:31;2.70;;;2.40;;
12650;SDS011;6390;49.400;8.670;2022-09-13T08:16:01;3.17;;;2.17;;
12650;SDS011;6390;49.400;8.670;2022-09-13T08:18:28;2.30;;;2.03;;
12650;SDS011;6390;49.400;8.670;2022-09-13T08:20:55;2.58;;;2.38;;
12650;SDS011;6390;49.400;8.670;2022-09-13T08:23:22;2.65;;;2.42;;
12650;SDS011;6390;49.400;8.670;2022-09-13T08:25:49;2.50;;;2.30;;
12650;SDS011;6390;49.400;8.670;2022-09-13T08:28:16;2.40;;;2.20;;
12650;SDS011;6390;49.400;8.670;2022-09-13T08:30:45;2.80;;;2.38;;
12650;SDS011;6390;49.400;8.670;2022-09-13T08:33:12;2.95;;;2.28;;
12650;SDS011;6390;49.400;8.670;2022-09-13T08:35:38;3.22;;;2.20;;
12650;SDS011;6390;49.400;8.670;2022-09-13T08:38:05;2.80;;;2.28;;
12650;SDS011;6390;49.400;8.670;2022-09-13T08:40:32;2.65;;;2.17;;
12650;SDS011;6390;49.400;8.670;2022-09-13T08:43:09;2.75;;;2.25;;
12650;SDS011;6390;49.400;8.670;2022-09-13T08:45:41;2.30;;;2.13;;
12650;SDS011;6390;49.400;8.670;2022-09-13T08:48:13;2.30;;;2.08;;
12650;SDS011;6390;49.400;8.670;2022-09-13T08:50:43;3.15;;;2.10;;
12650;SDS011;6390;49.400;8.670;2022-09-13T08:53:12;3.05;;;2.35;;
12650;SDS011;6390;49.400;8.670;2022-09-13T08:56:01;2.40;;;2.20;;
12650;SDS011;6390;49.400;8.670;2022-09-13T09:01:07;2.55;;;2.22;;
12650;SDS011;6390;49.400;8.670;2022-09-13T09:04:10;2.20;;;2.00;;
12650;SDS011;6390;49.400;8.670;2022-09-13T09:10:04;2.00;;;1.90;;
12650;SDS011;6390;49.400;8.670;2022-09-13T09:15:32;1.73;;;1.63;;
12650;SDS011;6390;49.400;8.670;2022-09-13T09:18:08;3.25;;;1.70;;
12650;SDS011;6390;49.400;8.670;2022-09-13T09:20:57;2.22;;;2.03;;
12650;SDS011;6390;49.400;8.670;2022-09-13T09:23:35;2.20;;;2.00;;
12650;SDS011;6390;49.400;8.670;2022-09-13T09:26:15;2.63;;;2.10;;
12650;SDS011;6390;49.400;8.670;2022-09-13T09:28:54;1.95;;;1.75;;
12650;SDS011;6390;49.400;8.670;2022-09-13T09:34:16;2.42;;;2.10;;
12650;SDS011;6390;49.400;8.670;2022-09-13T09:37:41;2.13;;;1.92;;
12650;SDS011;6390;49.400;8.670;2022-09-13T09:40:25;2.38;;;1.88;;
12650;SDS011;6390;49.400;8.670;2022-09-13T09:42:52;2.28;;;2.08;;
12650;SDS011;6390;49.400;8.670;2022-09-13T09:45:31;4.00;;;2.20;;
12650;SDS011;6390;49.400;8.670;2022-09-13T09:47:59;1.80;;;1.67;;
12650;SDS011;6390;49.400;8.670;2022-09-13T09:50:32;2.97;;;1.98;;
12650;SDS011;6390;49.400;8.670;2022-09-13T09:53:04;2.30;;;1.90;;
12650;SDS011;6390;49.400;8.670;2022-09-13T09:55:45;4.13;;;2.00;;
12650;SDS011;6390;49.400;8.670;2022-09-13T09:58:15;2.50;;;2.00;;
12650;SDS011;6390;49.400;8.670;2022-09-13T10:00:54;2.45;;;2.25;;
12650;SDS011;6390;49.400;8.670;2022-09-13T10:03:26;2.40;;;2.00;;
12650;SDS011;6390;49.400;8.670;2022-09-13T10:06:10;3.15;;;2.20;;
12650;SDS011;6390;49.400;8.670;2022-09-13T10:08:39;3.50;;;2.22;;
12650;SDS011;6390;49.400;8.670;2022-09-13T10:11:06;2.03;;;1.92;;
12650;SDS011;6390;49.400;8.670;2022-09-13T10:13:33;2.97;;;1.70;;
12650;SDS011;6390;49.400;8.670;2022-09-13T10:18:50;2.42;;;2.22;;
12650;SDS011;6390;49.400;8.670;2022-09-13T10:23:42;2.38;;;2.17;;
12650;SDS011;6390;49.400;8.670;2022-09-13T10:26:12;3.40;;;2.60;;
12650;SDS011;6390;49.400;8.670;2022-09-13T10:28:45;2.55;;;2.35;;
12650;SDS011;6390;49.400;8.670;2022-09-13T10:31:35;3.63;;;2.30;;
12650;SDS011;6390;49.400;8.670;2022-09-13T10:34:10;5.22;;;2.45;;
12650;SDS011;6390;49.400;8.670;2022-09-13T10:36:55;2.72;;;2.38;;
12650;SDS011;6390;49.400;8.670;2022-09-13T10:42:49;2.25;;;2.08;;
12650;SDS011;6390;49.400;8.670;2022-09-13T10:45:23;3.42;;;2.03;;
12650;SDS011;6390;49.400;8.670;2022-09-13T10:47:54;3.35;;;1.90;;
12650;SDS011;6390;49.400;8.670;2022-09-13T10:50:36;2.63;;;2.00;;
12650;SDS011;6390;49.400;8.670;2022-09-13T10:53:02;2.38;;;2.10;;
12650;SDS011;6390;49.400;8.670;2022-09-13T10:55:33;2.05;;;1.95;;
12650;SDS011;6390;49.400;8.670;2022-09-13T11:00:34;2.53;;;2.00;;
12650;SDS011;6390;49.400;8.670;2022-09-13T11:09:18;1.95;;;1.80;;
12650;SDS011;6390;49.400;8.670;2022-09-13T11:12:18;1.90;;;1.80;;
12650;SDS011;6390;49.400;8.670;2022-09-13T11:30:19;1.90;;;1.80;;
12650;SDS011;6390;49.400;8.670;2022-09-13T11:35:42;2.40;;;1.90;;
12650;SDS011;6390;49.400;8.670;2022-09-13T11:44:00;3.22;;;2.03;;
12650;SDS011;6390;49.400;8.670;2022-09-13T11:49:59;1.80;;;1.70;;
12650;SDS011;6390;49.400;8.670;2022-09-13T11:55:57;3.40;;;1.73;;
12650;SDS011;6390;49.400;8.670;2022-09-13T11:58:36;2.00;;;1.65;;
12650;SDS011;6390;49.400;8.670;2022-09-13T12:01:27;2.47;;;1.52;;
12650;SDS011;6390;49.400;8.670;2022-09-13T12:04:00;1.70;;;1.60;;
12650;SDS011;6390;49.400;8.670;2022-09-13T12:06:32;1.77;;;1.67;;
12650;SDS011;6390;49.400;8.670;2022-09-13T12:09:24;2.00;;;1.65;;
12650;SDS011;6390;49.400;8.670;2022-09-13T12:11:57;1.83;;;1.70;;
12650;SDS011;6390;49.400;8.670;2022-09-13T12:14:44;1.95;;;1.75;;
12650;SDS011;6390;49.400;8.670;2022-09-13T12:17:29;1.52;;;1.42;;
12650;SDS011;6390;49.400;8.670;2022-09-13T12:20:04;2.33;;;1.27;;
12650;SDS011;6390;49.400;8.670;2022-09-13T12:22:37;1.50;;;1.40;;
12650;SDS011;6390;49.400;8.670;2022-09-13T12:25:05;1.67;;;1.58;;
12650;SDS011;6390;49.400;8.670;2022-09-13T12:27:45;1.45;;;1.35;;
12650;SDS011;6390;49.400;8.670;2022-09-13T12:30:49;2.45;;;1.70;;
12650;SDS011;6390;49.400;8.670;2022-09-13T12:33:20;2.78;;;1.67;;
12650;SDS011;6390;49.400;8.670;2022-09-13T12:41:42;1.67;;;1.40;;
12650;SDS011;6390;49.400;8.670;2022-09-13T12:44:36;3.50;;;1.45;;
12650;SDS011;6390;49.400;8.670;2022-09-13T12:53:08;2.20;;;1.50;;
12650;SDS011;6390;49.400;8.670;2022-09-13T12:58:48;1.40;;;1.20;;
12650;SDS011;6390;49.400;8.670;2022-09-13T13:01:44;1.48;;;1.38;;
12650;SDS011;6390;49.400;8.670;2022-09-13T13:04:18;1.52;;;1.42;;
12650;SDS011;6390;49.400;8.670;2022-09-13T13:06:56;1.20;;;1.10;;
12650;SDS011;6390;49.400;8.670;2022-09-13T13:09:30;2.47;;;1.38;;
12650;SDS011;6390;49.400;8.670;2022-09-13T13:12:24;2.30;;;1.58;;
12650;SDS011;6390;49.400;8.670;2022-09-13T13:15:03;1.45;;;1.35;;
12650;SDS011;6390;49.400;8.670;2022-09-13T13:31:31;1.35;;;1.23;;
12650;SDS011;6390;49.400;8.670;2022-09-13T13:39:11;1.73;;;1.30;;
12650;SDS011;6390;49.400;8.670;2022-09-13T13:41:57;2.40;;;1.25;;
12650;SDS011;6390;49.400;8.670;2022-09-13T13:58:01;1.58;;;1.33;;
12650;SDS011;6390;49.400;8.670;2022-09-13T14:00:49;1.52;;;1.40;;
12650;SDS011;6390;49.400;8.670;2022-09-13T14:20:17;2.42;;;1.00;;
12650;SDS011;6390;49.400;8.670;2022-09-13T14:22:45;2.30;;;1.20;;
12650;SDS011;6390;49.400;8.670;2022-09-13T14:27:44;1.30;;;1.20;;
12650;SDS011;6390;49.400;8.670;2022-09-13T14:30:19;1.52;;;1.15;;
12650;SDS011;6390;49.400;8.670;2022-09-13T14:32:56;1.48;;;1.08;;
12650;SDS011;6390;49.400;8.670;2022-09-13T14:35:37;2.60;;;1.35;;
12650;SDS011;6390;49.400;8.670;2022-09-13T14:38:12;3.47;;;1.17;;
12650;SDS011;6390;49.400;8.670;2022-09-13T14:40:49;1.40;;;1.30;;
12650;SDS011;6390;49.400;8.670;2022-09-13T14:43:22;2.97;;;1.08;;
12650;SDS011;6390;49.400;8.670;2022-09-13T14:45:53;2.33;;;1.20;;
12650;SDS011;6390;49.400;8.670;2022-09-13T14:48:31;1.30;;;1.20;;
12650;SDS011;6390;49.400;8.670;2022-09-13T14:51:17;1.40;;;1.25;;
12650;SDS011;6390;49.400;8.670;2022-09-13T14:53:49;1.20;;;1.10;;
12650;SDS011;6390;49.400;8.670;2022-09-13T14:56:29;1.40;;;1.30;;
12650;SDS011;6390;49.400;8.670;2022-09-13T14:59:29;4.32;;;1.40;;
12650;SDS011;6390;49.400;8.670;2022-09-13T15:02:05;1.52;;;1.38;;
12650;SDS011;6390;49.400;8.670;2022-09-13T15:04:46;1.48;;;1.13;;
12650;SDS011;6390;49.400;8.670;2022-09-13T15:09:49;1.35;;;1.25;;
12650;SDS011;6390;49.400;8.670;2022-09-13T15:12:23;3.35;;;2.05;;
12650;SDS011;6390;49.400;8.670;2022-09-13T15:20:44;2.35;;;1.63;;
12650;SDS011;6390;49.400;8.670;2022-09-13T15:23:19;2.40;;;1.50;;
12650;SDS011;6390;49.400;8.670;2022-09-13T15:25:59;2.95;;;1.60;;
12650;SDS011;6390;49.400;8.670;2022-09-13T15:29:14;1.60;;;1.25;;
12650;SDS011;6390;49.400;8.670;2022-09-13T15:31:22;1.67;;;1.38;;
12650;SDS011;6390;49.400;8.670;2022-09-13T15:37:06;2.17;;;1.13;;
12650;SDS011;6390;49.400;8.670;2022-09-13T15:39:44;1.38;;;1.27;;
12650;SDS011;6390;49.400;8.670;2022-09-13T15:42:25;2.47;;;1.50;;
12650;SDS011;6390;49.400;8.670;2022-09-13T15:44:51;1.95;;;1.40;;
12650;SDS011;6390;49.400;8.670;2022-09-13T15:47:17;2.17;;;1.20;;
12650;SDS011;6390;49.400;8.670;2022-09-13T15:49:48;2.63;;;1.40;;
12650;SDS011;6390;49.400;8.670;2022-09-13T15:52:16;2.03;;;1.17;;
12650;SDS011;6390;49.400;8.670;2022-09-13T15:54:45;1.75;;;1.33;;
12650;SDS011;6390;49.400;8.670;2022-09-13T15:57:16;1.95;;;1.23;;
12650;SDS011;6390;49.400;8.670;2022-09-13T15:59:49;1.80;;;1.40;;
12650;SDS011;6390;49.400;8.670;2022-09-13T16:02:22;3.65;;;1.50;;
12650;SDS011;6390;49.400;8.670;2022-09-13T16:04:55;1.58;;;1.20;;
12650;SDS011;6390;49.400;8.670;2022-09-13T16:07:22;2.65;;;1.38;;
12650;SDS011;6390;49.400;8.670;2022-09-13T16:09:49;1.77;;;1.38;;
12650;SDS011;6390;49.400;8.670;2022-09-13T16:12:16;4.95;;;1.35;;
12650;SDS011;6390;49.400;8.670;2022-09-13T16:14:43;3.10;;;1.30;;
12650;SDS011;6390;49.400;8.670;2022-09-13T16:17:11;1.48;;;1.38;;
12650;SDS011;6390;49.400;8.670;2022-09-13T16:19:45;1.30;;;1.20;;
12650;SDS011;6390;49.400;8.670;2022-09-13T16:22:11;2.13;;;1.30;;
12650;SDS011;6390;49.400;8.670;2022-09-13T16:24:37;2.47;;;1.30;;
12650;SDS011;6390;49.400;8.670;2022-09-13T16:27:04;1.52;;;1.40;;
12650;SDS011;6390;49.400;8.670;2022-09-13T16:29:30;1.30;;;1.20;;
12650;SDS011;6390;49.400;8.670;2022-09-13T16:31:56;1.42;;;1.33;;
12650;SDS011;6390;49.400;8.670;2022-09-13T16:34:24;2.13;;;1.73;;
12650;SDS011;6390;49.400;8.670;2022-09-13T16:36:50;2.10;;;1.40;;
12650;SDS011;6390;49.400;8.670;2022-09-13T16:39:17;1.50;;;1.40;;
12650;SDS011;6390;49.400;8.670;2022-09-13T16:41:43;2.88;;;1.73;;
12650;SDS011;6390;49.400;8.670;2022-09-13T16:44:09;1.73;;;1.52;;
12650;SDS011;6390;49.400;8.670;2022-09-13T16:46:36;1.60;;;1.40;;
12650;SDS011;6390;49.400;8.670;2022-09-13T16:49:02;2.08;;;1.27;;
12650;SDS011;6390;49.400;8.670;2022-09-13T16:51:28;1.50;;;1.40;;
12650;SDS011;6390;49.400;8.670;2022-09-13T16:53:55;1.35;;;1.25;;
12650;SDS011;6390;49.400;8.670;2022-09-13T16:56:22;1.60;;;1.42;;
12650;SDS011;6390;49.400;8.670;2022-09-13T16:58:49;1.92;;;1.48;;
12650;SDS011;6390;49.400;8.670;2022-09-13T17:01:20;1.63;;;1.40;;
12650;SDS011;6390;49.400;8.670;2022-09-13T17:03:49;1.60;;;1.40;;
12650;SDS011;6390;49.400;8.670;2022-09-13T17:06:16;1.73;;;1.40;;
12650;SDS011;6390;49.400;8.670;2022-09-13T17:08:51;2.05;;;1.67;;
12650;SDS011;6390;49.400;8.670;2022-09-13T17:11:21;2.80;;;1.55;;
12650;SDS011;6390;49.400;8.670;2022-09-13T17:13:50;1.40;;;1.30;;
12650;SDS011;6390;49.400;8.670;2022-09-13T17:18:53;1.67;;;1.33;;
12650;SDS011;6390;49.400;8.670;2022-09-13T17:21:21;3.35;;;1.80;;
12650;SDS011;6390;49.400;8.670;2022-09-13T17:23:48;1.90;;;1.50;;
12650;SDS011;6390;49.400;8.670;2022-09-13T17:26:14;1.65;;;1.30;;
12650;SDS011;6390;49.400;8.670;2022-09-13T17:28:41;2.22;;;1.60;;
12650;SDS011;6390;49.400;8.670;2022-09-13T17:31:07;1.50;;;1.40;;
12650;SDS011;6390;49.400;8.670;2022-09-13T17:33:33;1.88;;;1.60;;
12650;SDS011;6390;49.400;8.670;2022-09-13T17:36:00;2.55;;;1.80;;
12650;SDS011;6390;49.400;8.670;2022-09-13T17:38:34;4.07;;;1.40;;
12650;SDS011;6390;49.400;8.670;2022-09-13T17:41:03;1.63;;;1.52;;
12650;SDS011;6390;49.400;8.670;2022-09-13T17:43:39;3.88;;;2.05;;
12650;SDS011;6390;49.400;8.670;2022-09-13T17:46:10;3.97;;;2.25;;
12650;SDS011;6390;49.400;8.670;2022-09-13T17:48:41;1.73;;;1.63;;
12650;SDS011;6390;49.400;8.670;2022-09-13T17:51:11;2.00;;;1.80;;
12650;SDS011;6390;49.400;8.670;2022-09-13T17:53:41;1.67;;;1.58;;
12650;SDS011;6390;49.400;8.670;2022-09-13T17:56:10;1.80;;;1.70;;
12650;SDS011;6390;49.400;8.670;2022-09-13T17:58:36;2.15;;;1.90;;
12650;SDS011;6390;49.400;8.670;2022-09-13T18:01:03;2.10;;;1.80;;
12650;SDS011;6390;49.400;8.670;2022-09-13T18:03:32;2.60;;;1.98;;
12650;SDS011;6390;49.400;8.670;2022-09-13T18:06:00;1.50;;;1.40;;
12650;SDS011;6390;49.400;8.670;2022-09-13T18:08:28;2.10;;;1.95;;
12650;SDS011;6390;49.400;8.670;2022-09-13T18:11:03;1.65;;;1.55;;
12650;SDS011;6390;49.400;8.670;2022-09-13T18:13:38;1.70;;;1.60;;
12650;SDS011;6390;49.400;8.670;2022-09-13T18:16:06;2.75;;;2.00;;
12650;SDS011;6390;49.400;8.670;2022-09-13T18:18:36;2.55;;;2.35;;
12650;SDS011;6390;49.400;8.670;2022-09-13T18:21:03;2.30;;;2.10;;
12650;SDS011;6390;49.400;8.670;2022-09-13T18:23:30;3.38;;;2.15;;
12650;SDS011;6390;49.400;8.670;2022-09-13T18:25:58;1.77;;;1.67;;
12650;SDS011;6390;49.400;8.670;2022-09-13T18:28:27;3.28;;;2.15;;
12650;SDS011;6390;49.400;8.670;2022-09-13T18:30:55;3.75;;;2.00;;
12650;SDS011;6390;49.400;8.670;2022-09-13T18:33:23;2.95;;;2.05;;
12650;SDS011;6390;49.400;8.670;2022-09-13T18:38:31;2.05;;;1.95;;
12650;SDS011;6390;49.400;8.670;2022-09-13T18:41:09;2.10;;;2.00;;
12650;SDS011;6390;49.400;8.670;2022-09-13T18:43:43;2.83;;;2.53;;